McLean, Texas
Current Conditions -  °F | °C
As of 10:15 PM on Tuesday 21 Oct 2014 (Local Time) from KPPA Reporting Station
Clear Clear  
Wind Chill: 63°   Ceiling: Unl
Heat Index: 63°   Visibility: 10mi
Dew Point: 47°   Wind: 13mph
Humidity: 55%   Direction: 180°S
Pressure: 30.08"   Gusts: NA
Location:  35.23°N, 100.6°W
Report Text: KPPA 220315Z AUTO 18011KT 10SM CLR 17/08 A3008 RMK AO2 T01730083 PNO
Loading
Personal Weather Stations






























Interactive Weather Map
Tropical Storm Tracking
New forecast layout! Learn more

10-Day Weather Forecast

Advertisements
Track Severe Weather on mobile